WJA2229 MMMX-CYYC
Flight info
| Callsign | WJA2229 |
|---|---|
| Flight time | N/A |
| Altitude | 36000 |
| Route | AXIR2A AXIRI UT138 CVM UJ41 NLD ABI ZIGEE CYS J13 BIL MOBEK EBGAL7 |
| Aircraft | B736/M-VGDW/C |
Departure
| Time | 2026-05-04 21:21 |
|---|---|
| Airport | Mexico City Benito Juárez International Airport (MMMX) |
Arrival
| Time | N/A |
|---|---|
| Airport | Calgary International Airport (CYYC) |
| Time | Latitude | Longitude | Altitude | Speed | Heading |
|---|---|---|---|---|---|
| 2026-05-04 21:04 | 19.43723 | -99.07817 | 7324 ft | 0 kts | 61° |
| 2026-05-04 21:10 | 19.43716 | -99.07829 | 7324 ft | 3 kts | 26° |
| 2026-05-04 21:10 | 19.43700 | -99.07838 | 7324 ft | 2 kts | 41° |
| 2026-05-04 21:11 | 19.43686 | -99.07852 | 7324 ft | 3 kts | 53° |
| 2026-05-04 21:11 | 19.43677 | -99.07870 | 7324 ft | 2 kts | 90° |
| 2026-05-04 21:11 | 19.43679 | -99.07882 | 7324 ft | 1 kts | 107° |
| 2026-05-04 21:11 | 19.43680 | -99.07885 | 7324 ft | 0 kts | 107° |
| 2026-05-04 21:15 | 19.43678 | -99.07880 | 7324 ft | 3 kts | 108° |
| 2026-05-04 21:15 | 19.43652 | -99.07844 | 7324 ft | 10 kts | 148° |
| 2026-05-04 21:16 | 19.43580 | -99.07830 | 7324 ft | 12 kts | 226° |
| 2026-05-04 21:16 | 19.43535 | -99.07904 | 7324 ft | 12 kts | 239° |
| 2026-05-04 21:16 | 19.43493 | -99.07980 | 7324 ft | 11 kts | 239° |
| 2026-05-04 21:16 | 19.43454 | -99.08051 | 7324 ft | 11 kts | 239° |
| 2026-05-04 21:17 | 19.43416 | -99.08120 | 7324 ft | 11 kts | 239° |
| 2026-05-04 21:17 | 19.43375 | -99.08193 | 7324 ft | 13 kts | 239° |
| 2026-05-04 21:17 | 19.43326 | -99.08282 | 7324 ft | 15 kts | 239° |
| 2026-05-04 21:17 | 19.43268 | -99.08387 | 7324 ft | 17 kts | 239° |
| 2026-05-04 21:18 | 19.43205 | -99.08501 | 7324 ft | 18 kts | 240° |
| 2026-05-04 21:18 | 19.43140 | -99.08612 | 7324 ft | 17 kts | 237° |
| 2026-05-04 21:18 | 19.43080 | -99.08717 | 7324 ft | 16 kts | 240° |
| 2026-05-04 21:18 | 19.43026 | -99.08816 | 7324 ft | 15 kts | 239° |
| 2026-05-04 21:19 | 19.42973 | -99.08912 | 7324 ft | 15 kts | 240° |
| 2026-05-04 21:19 | 19.42921 | -99.09002 | 7324 ft | 14 kts | 232° |
| 2026-05-04 21:19 | 19.42848 | -99.09058 | 7324 ft | 13 kts | 209° |
| 2026-05-04 21:19 | 19.42768 | -99.09085 | 7324 ft | 12 kts | 149° |
| 2026-05-04 21:20 | 19.42787 | -99.09004 | 7324 ft | 12 kts | 60° |
| 2026-05-04 21:20 | 19.42878 | -99.08841 | 7324 ft | 50 kts | 58° |
| 2026-05-04 21:20 | 19.43142 | -99.08370 | 7324 ft | 100 kts | 61° |
| 2026-05-04 21:20 | 19.43584 | -99.07584 | 7324 ft | 144 kts | 59° |
| 2026-05-04 21:21 | 19.44149 | -99.06580 | 7325 ft | 179 kts | 57° |
| 2026-05-04 21:21 | 19.44842 | -99.05378 | 7541 ft | 189 kts | 68° |
| 2026-05-04 21:21 | 19.45364 | -99.04061 | 7761 ft | 205 kts | 74° |
| 2026-05-04 21:21 | 19.45632 | -99.02554 | 8053 ft | 217 kts | 78° |
| 2026-05-04 21:22 | 19.46242 | -99.00936 | 7806 ft | 258 kts | 56° |
| 2026-05-04 21:22 | 19.47374 | -98.99386 | 8065 ft | 275 kts | 48° |
| 2026-05-04 21:22 | 19.48724 | -98.97886 | 8625 ft | 285 kts | 45° |
| 2026-05-04 21:22 | 19.49994 | -98.96233 | 9176 ft | 286 kts | 54° |
| 2026-05-04 21:23 | 19.51014 | -98.94498 | 9718 ft | 290 kts | 59° |
| 2026-05-04 21:23 | 19.52041 | -98.92604 | 10279 ft | 297 kts | 59° |
| 2026-05-04 21:23 | 19.53113 | -98.90716 | 10831 ft | 302 kts | 55° |
| 2026-05-04 21:23 | 19.54320 | -98.89049 | 11399 ft | 306 kts | 50° |
| 2026-05-04 21:24 | 19.55745 | -98.87361 | 12026 ft | 310 kts | 46° |
| 2026-05-04 21:24 | 19.57228 | -98.85711 | 12650 ft | 314 kts | 46° |
| 2026-05-04 21:24 | 19.58729 | -98.84019 | 13258 ft | 320 kts | 46° |
| 2026-05-04 21:24 | 19.60270 | -98.82258 | 13559 ft | 338 kts | 47° |
| 2026-05-04 21:25 | 19.61934 | -98.80345 | 13836 ft | 356 kts | 47° |
| 2026-05-04 21:25 | 19.63634 | -98.78382 | 14257 ft | 367 kts | 47° |
| 2026-05-04 21:25 | 19.65376 | -98.76369 | 14940 ft | 370 kts | 47° |
| 2026-05-04 21:25 | 19.67080 | -98.74401 | 15683 ft | 370 kts | 47° |
| 2026-05-04 21:26 | 19.68715 | -98.72533 | 16248 ft | 374 kts | 44° |
| 2026-05-04 21:26 | 19.70802 | -98.70889 | 16841 ft | 375 kts | 27° |
| 2026-05-04 21:26 | 19.73270 | -98.69953 | 17513 ft | 377 kts | 13° |
| 2026-05-04 21:26 | 19.75809 | -98.69551 | 18088 ft | 379 kts | 5° |
| 2026-05-04 21:27 | 19.77611 | -98.69434 | 18483 ft | 382 kts | 4° |
| 2026-05-04 21:27 | 19.81129 | -98.69275 | 19148 ft | 387 kts | 3° |
| 2026-05-04 21:27 | 19.83833 | -98.69119 | 19670 ft | 390 kts | 4° |
| 2026-05-04 21:27 | 19.86606 | -98.68941 | 20190 ft | 393 kts | 4° |
| 2026-05-04 21:28 | 19.89286 | -98.68763 | 20671 ft | 396 kts | 4° |
| 2026-05-04 21:28 | 19.92097 | -98.68574 | 21151 ft | 399 kts | 4° |
| 2026-05-04 21:28 | 19.94867 | -98.68592 | 21595 ft | 402 kts | 353° |
| 2026-05-04 21:28 | 19.96712 | -98.68999 | 21881 ft | 405 kts | 344° |
| 2026-05-04 21:29 | 19.99291 | -98.70162 | 22296 ft | 409 kts | 332° |
| 2026-05-04 21:29 | 20.01419 | -98.71560 | 22789 ft | 408 kts | 326° |
| 2026-05-04 21:29 | 20.03678 | -98.73321 | 23670 ft | 396 kts | 323° |
| 2026-05-04 21:29 | 20.05818 | -98.75052 | 24664 ft | 383 kts | 324° |
| 2026-05-04 21:30 | 20.07951 | -98.76728 | 25424 ft | 378 kts | 324° |
| 2026-05-04 21:30 | 20.10089 | -98.78388 | 25853 ft | 381 kts | 324° |
| 2026-05-04 21:30 | 20.12229 | -98.80043 | 26296 ft | 383 kts | 325° |
| 2026-05-04 21:30 | 20.15093 | -98.82260 | 26903 ft | 385 kts | 325° |
| 2026-05-04 21:31 | 20.18689 | -98.85065 | 27571 ft | 390 kts | 324° |
| 2026-05-04 21:31 | 20.20876 | -98.86790 | 27973 ft | 392 kts | 324° |
| 2026-05-04 21:31 | 20.23075 | -98.88517 | 28378 ft | 394 kts | 324° |
| 2026-05-04 21:32 | 20.25265 | -98.90281 | 28750 ft | 396 kts | 322° |
| 2026-05-04 21:32 | 20.27395 | -98.92173 | 29018 ft | 401 kts | 320° |
| 2026-05-04 21:32 | 20.29504 | -98.94132 | 29063 ft | 403 kts | 320° |
| 2026-05-04 21:33 | 20.33738 | -98.98004 | 29075 ft | 399 kts | 320° |
| 2026-05-04 21:33 | 20.37959 | -99.01831 | 29085 ft | 399 kts | 320° |
| 2026-05-04 21:34 | 20.42299 | -99.05489 | 29084 ft | 398 kts | 332° |
| 2026-05-04 21:34 | 20.44874 | -99.06545 | 29097 ft | 398 kts | 347° |
| 2026-05-04 21:34 | 20.47637 | -99.06894 | 29279 ft | 403 kts | 357° |
| 2026-05-04 21:34 | 20.50439 | -99.06931 | 29709 ft | 403 kts | 360° |
| 2026-05-04 21:35 | 20.53254 | -99.06837 | 30089 ft | 405 kts | 1° |
| 2026-05-04 21:35 | 20.56078 | -99.06693 | 30435 ft | 408 kts | 1° |
| 2026-05-04 21:35 | 20.58916 | -99.06547 | 30789 ft | 409 kts | 1° |
| 2026-05-04 21:35 | 20.61772 | -99.06401 | 31120 ft | 412 kts | 1° |
| 2026-05-04 21:36 | 20.64635 | -99.06254 | 31452 ft | 413 kts | 1° |
| 2026-05-04 21:36 | 20.67508 | -99.06108 | 31768 ft | 415 kts | 1° |
| 2026-05-04 21:36 | 20.70403 | -99.05960 | 32060 ft | 417 kts | 1° |
| 2026-05-04 21:36 | 20.73308 | -99.05812 | 32379 ft | 418 kts | 1° |
| 2026-05-04 21:37 | 20.76225 | -99.05663 | 32681 ft | 420 kts | 1° |
| 2026-05-04 21:37 | 20.79150 | -99.05514 | 32969 ft | 422 kts | 1° |
| 2026-05-04 21:37 | 20.82082 | -99.05365 | 33230 ft | 424 kts | 1° |
| 2026-05-04 21:37 | 20.85039 | -99.05215 | 33494 ft | 425 kts | 1° |
| 2026-05-04 21:38 | 20.87996 | -99.05064 | 33770 ft | 427 kts | 1° |
| 2026-05-04 21:38 | 20.90970 | -99.04913 | 34011 ft | 428 kts | 1° |
| 2026-05-04 21:38 | 20.93954 | -99.04761 | 34223 ft | 430 kts | 1° |
| 2026-05-04 21:38 | 20.96955 | -99.04608 | 34428 ft | 433 kts | 1° |
| 2026-05-04 21:39 | 20.99963 | -99.04454 | 34623 ft | 435 kts | 1° |
| 2026-05-04 21:39 | 21.02992 | -99.04299 | 34851 ft | 436 kts | 0° |
| 2026-05-04 21:39 | 21.06023 | -99.04145 | 35043 ft | 438 kts | 0° |
| 2026-05-04 21:39 | 21.09072 | -99.03989 | 35212 ft | 440 kts | 0° |
| 2026-05-04 21:40 | 21.12127 | -99.03833 | 35399 ft | 441 kts | 0° |
| 2026-05-04 21:40 | 21.15209 | -99.03675 | 35570 ft | 443 kts | 0° |
| 2026-05-04 21:40 | 21.18252 | -99.03519 | 35740 ft | 444 kts | 360° |
| 2026-05-04 21:40 | 21.21387 | -99.03359 | 35895 ft | 446 kts | 360° |
| 2026-05-04 21:41 | 21.24487 | -99.03200 | 36060 ft | 448 kts | 360° |
| 2026-05-04 21:41 | 21.30734 | -99.02880 | 36074 ft | 449 kts | 360° |
| 2026-05-04 21:42 | 21.36973 | -99.02560 | 36075 ft | 448 kts | 360° |
| 2026-05-04 21:42 | 21.43184 | -99.02242 | 36073 ft | 448 kts | 360° |
| 2026-05-04 21:43 | 21.49404 | -99.01922 | 36070 ft | 448 kts | 360° |
| 2026-05-04 21:43 | 21.55590 | -99.01604 | 36066 ft | 448 kts | 360° |
| 2026-05-04 21:44 | 21.61820 | -99.01284 | 36062 ft | 448 kts | 360° |
| 2026-05-04 21:44 | 21.68034 | -99.00964 | 36058 ft | 448 kts | 360° |
| 2026-05-04 21:45 | 21.74258 | -99.00643 | 36055 ft | 448 kts | 359° |
| 2026-05-04 21:45 | 21.80483 | -99.00322 | 36050 ft | 447 kts | 359° |
| 2026-05-04 21:46 | 21.86694 | -99.00001 | 36046 ft | 448 kts | 359° |
| 2026-05-04 21:46 | 21.92920 | -98.99679 | 36042 ft | 447 kts | 359° |
| 2026-05-04 21:47 | 21.99133 | -98.99358 | 36038 ft | 447 kts | 359° |
| 2026-05-04 21:47 | 22.05339 | -98.99036 | 36034 ft | 446 kts | 359° |
| 2026-05-04 21:48 | 22.11544 | -98.98715 | 36031 ft | 446 kts | 359° |
| 2026-05-04 21:48 | 22.17740 | -98.98394 | 36015 ft | 446 kts | 359° |
| 2026-05-04 21:49 | 22.23942 | -98.98072 | 35988 ft | 446 kts | 359° |
| 2026-05-04 21:49 | 22.30143 | -98.97750 | 35972 ft | 446 kts | 359° |
| 2026-05-04 21:50 | 22.36334 | -98.97428 | 35958 ft | 446 kts | 359° |
| 2026-05-04 21:50 | 22.42536 | -98.97105 | 35951 ft | 446 kts | 359° |
| 2026-05-04 21:51 | 22.48736 | -98.96782 | 35948 ft | 446 kts | 359° |
| 2026-05-04 21:51 | 22.54935 | -98.96459 | 35945 ft | 446 kts | 359° |
| 2026-05-04 21:52 | 22.61134 | -98.96135 | 35942 ft | 445 kts | 359° |
| 2026-05-04 21:52 | 22.67327 | -98.95812 | 35939 ft | 446 kts | 359° |
| 2026-05-04 21:53 | 22.73525 | -98.95488 | 35936 ft | 445 kts | 359° |
| 2026-05-04 21:53 | 22.79707 | -98.95164 | 35932 ft | 445 kts | 359° |
| 2026-05-04 21:54 | 22.85900 | -98.94840 | 35928 ft | 445 kts | 359° |
| 2026-05-04 21:54 | 22.92093 | -98.94515 | 35923 ft | 445 kts | 359° |
| 2026-05-04 21:55 | 22.98281 | -98.94191 | 35919 ft | 445 kts | 359° |
| 2026-05-04 21:55 | 23.04427 | -98.93869 | 35914 ft | 445 kts | 358° |
| 2026-05-04 21:56 | 23.10662 | -98.93541 | 35909 ft | 445 kts | 358° |
| 2026-05-04 21:56 | 23.16806 | -98.93217 | 35904 ft | 445 kts | 358° |
| 2026-05-04 21:57 | 23.22987 | -98.92891 | 35900 ft | 445 kts | 358° |
| 2026-05-04 21:57 | 23.29166 | -98.92566 | 35896 ft | 445 kts | 358° |
| 2026-05-04 21:58 | 23.35335 | -98.92580 | 35881 ft | 441 kts | 352° |
| 2026-05-04 21:58 | 23.41423 | -98.93181 | 35871 ft | 439 kts | 350° |
| 2026-05-04 21:59 | 23.47515 | -98.93776 | 35867 ft | 440 kts | 351° |
| 2026-05-04 21:59 | 23.53613 | -98.94342 | 35864 ft | 439 kts | 351° |
| 2026-05-04 22:00 | 23.59750 | -98.94905 | 35862 ft | 440 kts | 351° |
| 2026-05-04 22:00 | 23.65805 | -98.95460 | 35860 ft | 440 kts | 351° |
| 2026-05-04 22:01 | 23.71900 | -98.96040 | 35860 ft | 438 kts | 349° |
| 2026-05-04 22:01 | 23.77934 | -98.96969 | 35860 ft | 438 kts | 347° |
| 2026-05-04 22:02 | 23.83953 | -98.97965 | 35861 ft | 438 kts | 347° |
| 2026-05-04 22:02 | 23.89979 | -98.98937 | 35862 ft | 438 kts | 347° |
| 2026-05-04 22:03 | 23.96010 | -98.99900 | 35864 ft | 438 kts | 347° |
| 2026-05-04 22:03 | 24.02037 | -99.00857 | 35867 ft | 438 kts | 347° |
| 2026-05-04 22:04 | 24.08048 | -99.01807 | 35870 ft | 436 kts | 347° |
| 2026-05-04 22:04 | 24.14057 | -99.02756 | 35874 ft | 436 kts | 347° |
| 2026-05-04 22:05 | 24.20074 | -99.03708 | 35878 ft | 437 kts | 347° |
| 2026-05-04 22:05 | 24.26094 | -99.04663 | 35882 ft | 437 kts | 347° |
| 2026-05-04 22:06 | 24.32113 | -99.05618 | 35887 ft | 437 kts | 347° |
| 2026-05-04 22:06 | 24.38130 | -99.06573 | 35892 ft | 436 kts | 347° |
| 2026-05-04 22:07 | 24.44132 | -99.07528 | 35897 ft | 436 kts | 347° |
| 2026-05-04 22:07 | 24.50151 | -99.08486 | 35896 ft | 436 kts | 347° |
| 2026-05-04 22:08 | 24.56164 | -99.09444 | 35899 ft | 437 kts | 347° |
| 2026-05-04 22:08 | 24.62187 | -99.10404 | 35903 ft | 437 kts | 347° |
| 2026-05-04 22:09 | 24.68191 | -99.11363 | 35906 ft | 436 kts | 346° |
| 2026-05-04 22:09 | 24.74197 | -99.12322 | 35910 ft | 436 kts | 346° |
| 2026-05-04 22:10 | 24.80209 | -99.13284 | 35914 ft | 436 kts | 346° |
| 2026-05-04 22:10 | 24.86220 | -99.14246 | 35916 ft | 436 kts | 346° |
| 2026-05-04 22:11 | 24.92222 | -99.15208 | 35919 ft | 436 kts | 346° |
| 2026-05-04 22:11 | 24.98221 | -99.16170 | 35921 ft | 435 kts | 346° |
| 2026-05-04 22:12 | 25.04207 | -99.17131 | 35923 ft | 435 kts | 346° |
| 2026-05-04 22:12 | 25.10212 | -99.18096 | 35925 ft | 436 kts | 346° |
| 2026-05-04 22:13 | 25.16205 | -99.19061 | 35927 ft | 435 kts | 346° |
| 2026-05-04 22:13 | 25.21190 | -99.19863 | 35928 ft | 435 kts | 346° |
| 2026-05-04 22:14 | 25.27184 | -99.20829 | 35929 ft | 435 kts | 346° |
| 2026-05-04 22:14 | 25.33174 | -99.21796 | 35930 ft | 435 kts | 346° |
| 2026-05-04 22:15 | 25.39162 | -99.22763 | 35931 ft | 435 kts | 346° |
| 2026-05-04 22:15 | 25.45143 | -99.23730 | 35933 ft | 435 kts | 346° |
| 2026-05-04 22:16 | 25.51132 | -99.24699 | 35945 ft | 434 kts | 346° |
| 2026-05-04 22:16 | 25.57117 | -99.25668 | 35948 ft | 434 kts | 346° |
| 2026-05-04 22:17 | 25.63092 | -99.26637 | 35948 ft | 434 kts | 346° |
| 2026-05-04 22:17 | 25.69068 | -99.27607 | 35949 ft | 434 kts | 346° |
| 2026-05-04 22:18 | 25.75047 | -99.28579 | 35949 ft | 434 kts | 346° |
| 2026-05-04 22:18 | 25.81029 | -99.29552 | 35943 ft | 434 kts | 346° |
| 2026-05-04 22:19 | 25.86994 | -99.30523 | 35940 ft | 434 kts | 346° |
| 2026-05-04 22:19 | 25.92967 | -99.31496 | 35933 ft | 434 kts | 346° |
| 2026-05-04 22:20 | 25.98939 | -99.32471 | 35930 ft | 434 kts | 346° |
| 2026-05-04 22:20 | 26.04903 | -99.33441 | 35926 ft | 432 kts | 345° |
| 2026-05-04 22:21 | 26.10791 | -99.34404 | 35922 ft | 431 kts | 345° |
| 2026-05-04 22:21 | 26.16780 | -99.35385 | 35922 ft | 432 kts | 345° |
| 2026-05-04 22:22 | 26.22723 | -99.36360 | 35920 ft | 431 kts | 345° |
| 2026-05-04 22:22 | 26.28669 | -99.37336 | 35919 ft | 432 kts | 345° |
| 2026-05-04 22:23 | 26.34609 | -99.38312 | 35917 ft | 431 kts | 345° |
| 2026-05-04 22:23 | 26.40539 | -99.39290 | 35916 ft | 431 kts | 345° |
| 2026-05-04 22:24 | 26.46430 | -99.40266 | 35914 ft | 431 kts | 345° |
| 2026-05-04 22:24 | 26.52360 | -99.41249 | 35913 ft | 430 kts | 345° |
| 2026-05-04 22:25 | 26.58284 | -99.42232 | 35912 ft | 430 kts | 345° |
| 2026-05-04 22:25 | 26.64203 | -99.43214 | 35910 ft | 430 kts | 345° |
| 2026-05-04 22:26 | 26.70128 | -99.44197 | 35910 ft | 430 kts | 345° |
| 2026-05-04 22:26 | 26.76041 | -99.45174 | 35909 ft | 429 kts | 345° |
| 2026-05-04 22:27 | 26.81954 | -99.46157 | 35909 ft | 429 kts | 345° |
| 2026-05-04 22:27 | 26.87855 | -99.47140 | 35909 ft | 429 kts | 345° |
| 2026-05-04 22:28 | 26.93754 | -99.48123 | 35908 ft | 429 kts | 345° |
| 2026-05-04 22:28 | 26.99646 | -99.49106 | 35906 ft | 428 kts | 345° |
| 2026-05-04 22:29 | 27.05543 | -99.50111 | 35904 ft | 428 kts | 345° |
| 2026-05-04 22:29 | 27.11432 | -99.51077 | 35901 ft | 428 kts | 345° |
| 2026-05-04 22:30 | 27.17312 | -99.52049 | 35898 ft | 427 kts | 344° |
| 2026-05-04 22:30 | 27.23200 | -99.53031 | 35895 ft | 428 kts | 344° |
| 2026-05-04 22:31 | 27.29049 | -99.54010 | 35893 ft | 428 kts | 344° |
| 2026-05-04 22:31 | 27.34917 | -99.54993 | 35891 ft | 426 kts | 344° |
| 2026-05-04 22:32 | 27.40827 | -99.55984 | 35890 ft | 426 kts | 344° |
| 2026-05-04 22:32 | 27.46707 | -99.56758 | 35890 ft | 432 kts | 349° |
| 2026-05-04 22:33 | 27.52731 | -99.57059 | 35890 ft | 433 kts | 349° |
| 2026-05-04 22:33 | 27.58743 | -99.57365 | 35890 ft | 433 kts | 349° |
| 2026-05-04 22:34 | 27.64758 | -99.57690 | 35891 ft | 432 kts | 349° |
| 2026-05-04 22:34 | 27.70780 | -99.58024 | 35891 ft | 434 kts | 349° |
| 2026-05-04 22:35 | 27.76795 | -99.58361 | 35893 ft | 432 kts | 349° |
| 2026-05-04 22:35 | 27.82798 | -99.58698 | 35896 ft | 432 kts | 349° |
| 2026-05-04 22:36 | 27.88802 | -99.59037 | 35897 ft | 432 kts | 349° |
| 2026-05-04 22:36 | 27.94811 | -99.59377 | 35899 ft | 432 kts | 349° |
| 2026-05-04 22:37 | 28.00814 | -99.59718 | 35901 ft | 432 kts | 349° |
| 2026-05-04 22:37 | 28.06846 | -99.60060 | 35901 ft | 431 kts | 349° |
| 2026-05-04 22:38 | 28.12799 | -99.60399 | 35902 ft | 431 kts | 349° |
| 2026-05-04 22:38 | 28.18790 | -99.60741 | 35901 ft | 431 kts | 349° |
| 2026-05-04 22:39 | 28.24775 | -99.61082 | 35899 ft | 430 kts | 349° |
| 2026-05-04 22:39 | 28.30742 | -99.61423 | 35900 ft | 429 kts | 349° |
| 2026-05-04 22:40 | 28.36699 | -99.61764 | 35899 ft | 429 kts | 348° |
| 2026-05-04 22:40 | 28.42669 | -99.62106 | 35900 ft | 429 kts | 348° |
| 2026-05-04 22:41 | 28.48626 | -99.62447 | 35899 ft | 428 kts | 348° |
| 2026-05-04 22:41 | 28.54573 | -99.62788 | 35899 ft | 428 kts | 348° |
| 2026-05-04 22:42 | 28.60527 | -99.63130 | 35899 ft | 428 kts | 348° |
| 2026-05-04 22:42 | 28.66462 | -99.63471 | 35899 ft | 426 kts | 348° |
| 2026-05-04 22:43 | 28.72383 | -99.63813 | 35899 ft | 426 kts | 348° |
| 2026-05-04 22:43 | 28.78292 | -99.64153 | 35900 ft | 425 kts | 348° |
| 2026-05-04 22:44 | 28.84182 | -99.64493 | 35900 ft | 423 kts | 348° |
| 2026-05-04 22:44 | 28.90068 | -99.64833 | 35901 ft | 423 kts | 348° |
| 2026-05-04 22:45 | 28.95948 | -99.65173 | 35901 ft | 422 kts | 348° |
| 2026-05-04 22:45 | 29.04746 | -99.65683 | 35902 ft | 422 kts | 348° |
| 2026-05-04 22:46 | 29.10605 | -99.66023 | 35901 ft | 421 kts | 348° |
| 2026-05-04 22:46 | 29.16455 | -99.66362 | 35901 ft | 420 kts | 347° |
| 2026-05-04 22:47 | 29.22286 | -99.66701 | 35900 ft | 419 kts | 347° |
| 2026-05-04 22:47 | 29.28106 | -99.67041 | 35901 ft | 419 kts | 347° |
| 2026-05-04 22:48 | 29.33923 | -99.67379 | 35903 ft | 418 kts | 347° |
| 2026-05-04 22:48 | 29.39727 | -99.67718 | 35907 ft | 418 kts | 347° |
| 2026-05-04 22:49 | 29.45529 | -99.68057 | 35910 ft | 417 kts | 347° |
| 2026-05-04 22:49 | 29.51335 | -99.68396 | 35914 ft | 417 kts | 347° |
| 2026-05-04 22:50 | 29.57129 | -99.68735 | 35918 ft | 417 kts | 347° |
| 2026-05-04 22:50 | 29.62922 | -99.69075 | 35923 ft | 417 kts | 347° |
| 2026-05-04 22:51 | 29.68705 | -99.69414 | 35927 ft | 416 kts | 347° |
| 2026-05-04 22:51 | 29.74491 | -99.69754 | 35931 ft | 416 kts | 347° |
| 2026-05-04 22:52 | 29.80271 | -99.70094 | 35934 ft | 416 kts | 347° |
| 2026-05-04 22:52 | 29.86060 | -99.70435 | 35937 ft | 416 kts | 347° |
| 2026-05-04 22:53 | 29.91804 | -99.70773 | 35939 ft | 416 kts | 347° |
| 2026-05-04 22:53 | 29.97612 | -99.71116 | 35938 ft | 415 kts | 347° |
| 2026-05-04 22:54 | 30.03387 | -99.71457 | 35931 ft | 415 kts | 347° |
| 2026-05-04 22:54 | 30.09158 | -99.71799 | 35928 ft | 415 kts | 347° |
| 2026-05-04 22:55 | 30.14919 | -99.72140 | 35924 ft | 415 kts | 347° |
| 2026-05-04 22:55 | 30.20693 | -99.72482 | 35918 ft | 415 kts | 347° |
| 2026-05-04 22:56 | 30.26461 | -99.72824 | 35911 ft | 415 kts | 347° |
| 2026-05-04 22:56 | 30.32186 | -99.73165 | 35902 ft | 414 kts | 346° |
| 2026-05-04 22:57 | 30.37010 | -99.73452 | 35896 ft | 414 kts | 346° |
| 2026-05-04 22:57 | 30.42770 | -99.73795 | 35886 ft | 414 kts | 346° |
| 2026-05-04 22:58 | 30.48528 | -99.74138 | 35881 ft | 414 kts | 346° |
| 2026-05-04 22:58 | 30.54280 | -99.74481 | 35880 ft | 414 kts | 346° |
| 2026-05-04 22:59 | 30.60031 | -99.74825 | 35880 ft | 414 kts | 346° |
| 2026-05-04 22:59 | 30.65761 | -99.75168 | 35879 ft | 412 kts | 346° |
| 2026-05-04 23:00 | 30.71477 | -99.75510 | 35877 ft | 411 kts | 346° |
| 2026-05-04 23:00 | 30.77190 | -99.75853 | 35875 ft | 411 kts | 346° |
| 2026-05-04 23:01 | 30.82894 | -99.76196 | 35872 ft | 410 kts | 346° |
| 2026-05-04 23:01 | 30.88592 | -99.76538 | 35868 ft | 410 kts | 346° |
| 2026-05-04 23:02 | 30.94250 | -99.76879 | 35867 ft | 409 kts | 346° |
| 2026-05-04 23:02 | 30.99976 | -99.77224 | 35864 ft | 409 kts | 346° |
| 2026-05-04 23:03 | 31.05661 | -99.77567 | 35862 ft | 410 kts | 346° |
| 2026-05-04 23:03 | 31.11315 | -99.77908 | 35859 ft | 409 kts | 346° |
| 2026-05-04 23:04 | 31.17027 | -99.78254 | 35858 ft | 408 kts | 345° |
| 2026-05-04 23:04 | 31.22668 | -99.78595 | 35851 ft | 408 kts | 345° |
| 2026-05-04 23:05 | 31.28340 | -99.78939 | 35847 ft | 408 kts | 345° |
| 2026-05-04 23:05 | 31.34002 | -99.79283 | 35845 ft | 407 kts | 345° |
| 2026-05-04 23:06 | 31.39671 | -99.79628 | 35839 ft | 409 kts | 345° |
| 2026-05-04 23:06 | 31.45356 | -99.79974 | 35830 ft | 408 kts | 345° |
| 2026-05-04 23:07 | 31.51027 | -99.80319 | 35828 ft | 408 kts | 345° |
| 2026-05-04 23:07 | 31.56692 | -99.80665 | 35823 ft | 407 kts | 345° |
| 2026-05-04 23:08 | 31.62356 | -99.81011 | 35821 ft | 408 kts | 345° |
| 2026-05-04 23:08 | 31.68009 | -99.81356 | 35819 ft | 407 kts | 345° |
| 2026-05-04 23:09 | 31.73669 | -99.81703 | 35818 ft | 407 kts | 345° |
| 2026-05-04 23:09 | 31.79325 | -99.82049 | 35816 ft | 407 kts | 345° |
| 2026-05-04 23:10 | 31.84975 | -99.82396 | 35812 ft | 406 kts | 345° |
| 2026-05-04 23:10 | 31.90624 | -99.82743 | 35803 ft | 406 kts | 345° |
| 2026-05-04 23:11 | 31.96271 | -99.83091 | 35796 ft | 406 kts | 345° |
| 2026-05-04 23:11 | 32.01916 | -99.83439 | 35794 ft | 406 kts | 345° |
| 2026-05-04 23:12 | 32.07568 | -99.83787 | 35790 ft | 406 kts | 345° |
| 2026-05-04 23:12 | 32.13211 | -99.84136 | 35782 ft | 406 kts | 345° |
| 2026-05-04 23:13 | 32.18858 | -99.84483 | 35775 ft | 406 kts | 345° |
| 2026-05-04 23:13 | 32.24509 | -99.84833 | 35766 ft | 406 kts | 345° |
| 2026-05-04 23:14 | 32.30114 | -99.85181 | 35759 ft | 406 kts | 345° |
| 2026-05-04 23:14 | 32.35789 | -99.85533 | 35753 ft | 406 kts | 345° |
| 2026-05-04 23:15 | 32.41393 | -99.85882 | 35750 ft | 406 kts | 345° |
| 2026-05-04 23:15 | 32.46928 | -99.86575 | 35750 ft | 392 kts | 335° |
| 2026-05-04 23:16 | 32.51964 | -99.88652 | 35753 ft | 378 kts | 327° |
| 2026-05-04 23:16 | 32.56793 | -99.91140 | 35756 ft | 375 kts | 326° |
| 2026-05-04 23:17 | 32.61551 | -99.93666 | 35761 ft | 375 kts | 326° |
| 2026-05-04 23:17 | 32.66305 | -99.96225 | 35766 ft | 375 kts | 326° |
| 2026-05-04 23:18 | 32.71041 | -99.98793 | 35770 ft | 374 kts | 326° |
| 2026-05-04 23:18 | 32.75740 | -100.01351 | 35768 ft | 375 kts | 325° |
| 2026-05-04 23:19 | 32.80532 | -100.03959 | 35770 ft | 377 kts | 326° |
| 2026-05-04 23:19 | 32.85300 | -100.06545 | 35771 ft | 376 kts | 325° |
| 2026-05-04 23:20 | 32.90058 | -100.09136 | 35771 ft | 376 kts | 325° |
| 2026-05-04 23:20 | 32.94769 | -100.11710 | 35768 ft | 375 kts | 325° |
| 2026-05-04 23:21 | 32.99507 | -100.14304 | 35766 ft | 375 kts | 325° |
| 2026-05-04 23:21 | 33.04236 | -100.16897 | 35764 ft | 374 kts | 325° |
| 2026-05-04 23:22 | 33.08962 | -100.19492 | 35762 ft | 374 kts | 325° |
| 2026-05-04 23:22 | 33.13679 | -100.22086 | 35759 ft | 373 kts | 325° |
| 2026-05-04 23:23 | 33.18393 | -100.24681 | 35756 ft | 373 kts | 325° |
| 2026-05-04 23:23 | 33.23102 | -100.27277 | 35752 ft | 372 kts | 325° |
| 2026-05-04 23:24 | 33.27795 | -100.29867 | 35758 ft | 372 kts | 325° |
| 2026-05-04 23:24 | 33.32494 | -100.32463 | 35765 ft | 371 kts | 324° |
| 2026-05-04 23:25 | 33.37187 | -100.35059 | 35761 ft | 371 kts | 324° |
| 2026-05-04 23:25 | 33.41873 | -100.37655 | 35759 ft | 371 kts | 324° |
| 2026-05-04 23:26 | 33.46557 | -100.40252 | 35757 ft | 370 kts | 324° |
| 2026-05-04 23:26 | 33.51230 | -100.42847 | 35755 ft | 370 kts | 324° |
| 2026-05-04 23:27 | 33.55901 | -100.45443 | 35752 ft | 370 kts | 324° |
| 2026-05-04 23:27 | 33.60578 | -100.48046 | 35753 ft | 370 kts | 324° |
| 2026-05-04 23:28 | 33.65247 | -100.50647 | 35755 ft | 370 kts | 324° |
| 2026-05-04 23:28 | 33.69922 | -100.53255 | 35748 ft | 370 kts | 324° |
| 2026-05-04 23:29 | 33.74587 | -100.55861 | 35741 ft | 370 kts | 324° |
| 2026-05-04 23:29 | 33.79247 | -100.58466 | 35737 ft | 369 kts | 324° |
| 2026-05-04 23:30 | 33.83910 | -100.61078 | 35734 ft | 369 kts | 324° |
| 2026-05-04 23:30 | 33.88565 | -100.63687 | 35734 ft | 369 kts | 324° |
| 2026-05-04 23:31 | 33.93227 | -100.66304 | 35733 ft | 370 kts | 324° |
| 2026-05-04 23:31 | 33.97896 | -100.68927 | 35731 ft | 370 kts | 324° |
| 2026-05-04 23:32 | 34.02564 | -100.71552 | 35729 ft | 370 kts | 324° |
| 2026-05-04 23:32 | 34.07230 | -100.74180 | 35728 ft | 371 kts | 324° |
| 2026-05-04 23:33 | 34.11896 | -100.76813 | 35726 ft | 371 kts | 324° |
| 2026-05-04 23:33 | 34.16572 | -100.79453 | 35725 ft | 371 kts | 324° |
| 2026-05-04 23:34 | 34.21243 | -100.82094 | 35718 ft | 371 kts | 324° |
| 2026-05-04 23:34 | 34.25914 | -100.84738 | 35715 ft | 371 kts | 324° |
| 2026-05-04 23:35 | 34.30550 | -100.87365 | 35711 ft | 371 kts | 323° |
| 2026-05-04 23:35 | 34.35253 | -100.90034 | 35712 ft | 371 kts | 323° |
| 2026-05-04 23:36 | 34.39929 | -100.92691 | 35715 ft | 371 kts | 323° |
| 2026-05-04 23:36 | 34.44603 | -100.95350 | 35716 ft | 371 kts | 323° |
| 2026-05-04 23:37 | 34.49239 | -100.97990 | 35717 ft | 371 kts | 323° |
| 2026-05-04 23:37 | 34.53949 | -101.00676 | 35720 ft | 372 kts | 323° |
| 2026-05-04 23:38 | 34.58625 | -101.03347 | 35726 ft | 372 kts | 323° |
| 2026-05-04 23:38 | 34.63273 | -101.06004 | 35728 ft | 372 kts | 323° |
| 2026-05-04 23:39 | 34.67983 | -101.08700 | 35731 ft | 372 kts | 323° |
| 2026-05-04 23:39 | 34.72665 | -101.11383 | 35731 ft | 373 kts | 323° |
| 2026-05-04 23:40 | 34.77332 | -101.14062 | 35732 ft | 373 kts | 323° |
| 2026-05-04 23:40 | 34.82015 | -101.16752 | 35734 ft | 373 kts | 323° |
| 2026-05-04 23:41 | 34.86703 | -101.19449 | 35735 ft | 372 kts | 323° |
| 2026-05-04 23:41 | 34.91378 | -101.22142 | 35736 ft | 372 kts | 323° |
| 2026-05-04 23:42 | 34.95298 | -101.24403 | 35737 ft | 372 kts | 323° |
| 2026-05-04 23:42 | 34.99971 | -101.27101 | 35739 ft | 373 kts | 323° |
| 2026-05-04 23:43 | 35.04670 | -101.29818 | 35739 ft | 372 kts | 323° |
| 2026-05-04 23:43 | 35.09339 | -101.32520 | 35741 ft | 372 kts | 323° |
| 2026-05-04 23:44 | 35.14020 | -101.35233 | 35742 ft | 372 kts | 323° |
| 2026-05-04 23:44 | 35.18702 | -101.37951 | 35744 ft | 372 kts | 323° |
| 2026-05-04 23:45 | 35.23377 | -101.40668 | 35744 ft | 372 kts | 323° |
| 2026-05-04 23:45 | 35.28053 | -101.43388 | 35738 ft | 372 kts | 323° |
| 2026-05-04 23:46 | 35.32722 | -101.46108 | 35737 ft | 372 kts | 323° |
| 2026-05-04 23:46 | 35.37392 | -101.48832 | 35734 ft | 371 kts | 323° |
| 2026-05-04 23:47 | 35.42051 | -101.51553 | 35730 ft | 371 kts | 323° |
| 2026-05-04 23:47 | 35.46723 | -101.54285 | 35726 ft | 372 kts | 322° |
| 2026-05-04 23:48 | 35.51374 | -101.57009 | 35721 ft | 372 kts | 322° |
| 2026-05-04 23:48 | 35.56052 | -101.59752 | 35718 ft | 372 kts | 322° |
| 2026-05-04 23:49 | 35.60713 | -101.62489 | 35716 ft | 372 kts | 322° |
| 2026-05-04 23:49 | 35.65434 | -101.65264 | 35716 ft | 372 kts | 322° |
| 2026-05-04 23:50 | 35.70065 | -101.67990 | 35718 ft | 372 kts | 322° |
| 2026-05-04 23:50 | 35.74747 | -101.70749 | 35716 ft | 372 kts | 322° |
| 2026-05-04 23:51 | 35.79396 | -101.73493 | 35720 ft | 373 kts | 322° |
| 2026-05-04 23:51 | 35.84084 | -101.76264 | 35725 ft | 373 kts | 322° |
| 2026-05-04 23:52 | 35.88750 | -101.79025 | 35728 ft | 373 kts | 322° |
| 2026-05-04 23:52 | 35.93440 | -101.81804 | 35731 ft | 373 kts | 322° |
| 2026-05-04 23:53 | 35.98092 | -101.84564 | 35731 ft | 373 kts | 322° |
| 2026-05-04 23:53 | 36.02784 | -101.87351 | 35731 ft | 373 kts | 322° |
| 2026-05-04 23:54 | 36.07429 | -101.90114 | 35726 ft | 373 kts | 322° |
| 2026-05-04 23:54 | 36.12122 | -101.92910 | 35726 ft | 373 kts | 322° |
| 2026-05-04 23:55 | 36.16778 | -101.95687 | 35723 ft | 373 kts | 322° |
| 2026-05-04 23:56 | 36.23771 | -101.99865 | 35718 ft | 372 kts | 322° |
| 2026-05-04 23:56 | 36.28437 | -102.02657 | 35719 ft | 372 kts | 322° |
| 2026-05-04 23:57 | 36.33121 | -102.05464 | 35725 ft | 372 kts | 322° |
| 2026-05-04 23:57 | 36.37801 | -102.08272 | 35720 ft | 373 kts | 322° |
| 2026-05-04 23:58 | 36.42480 | -102.11083 | 35732 ft | 375 kts | 322° |
| 2026-05-04 23:58 | 36.47171 | -102.13906 | 35732 ft | 374 kts | 322° |
| 2026-05-04 23:59 | 36.51847 | -102.16723 | 35730 ft | 374 kts | 322° |
| 2026-05-04 23:59 | 36.56551 | -102.19561 | 35728 ft | 374 kts | 322° |
| 2026-05-05 00:00 | 36.61244 | -102.22396 | 35726 ft | 375 kts | 322° |
| 2026-05-05 00:00 | 36.65902 | -102.25213 | 35725 ft | 375 kts | 322° |
| 2026-05-05 00:01 | 36.70625 | -102.28075 | 35718 ft | 375 kts | 321° |
| 2026-05-05 00:01 | 36.75285 | -102.30902 | 35708 ft | 376 kts | 322° |
| 2026-05-05 00:02 | 36.79983 | -102.33755 | 35707 ft | 375 kts | 322° |
| 2026-05-05 00:02 | 36.84688 | -102.36619 | 35710 ft | 378 kts | 321° |
| 2026-05-05 00:03 | 36.89459 | -102.39528 | 35713 ft | 385 kts | 322° |
| 2026-05-05 00:03 | 36.94278 | -102.42461 | 35719 ft | 384 kts | 321° |
| 2026-05-05 00:04 | 36.99059 | -102.45385 | 35711 ft | 381 kts | 321° |
| 2026-05-05 00:04 | 37.03837 | -102.48302 | 35717 ft | 382 kts | 321° |
| 2026-05-05 00:05 | 37.08622 | -102.51237 | 35715 ft | 383 kts | 321° |
| 2026-05-05 00:05 | 37.13405 | -102.54169 | 35717 ft | 382 kts | 321° |
| 2026-05-05 00:06 | 37.18186 | -102.57107 | 35723 ft | 384 kts | 321° |
| 2026-05-05 00:06 | 37.23003 | -102.60064 | 35719 ft | 385 kts | 321° |
| 2026-05-05 00:07 | 37.27809 | -102.63007 | 35718 ft | 384 kts | 321° |
| 2026-05-05 00:07 | 37.32644 | -102.65991 | 35721 ft | 389 kts | 321° |
| 2026-05-05 00:08 | 37.37490 | -102.68994 | 35717 ft | 386 kts | 320° |
| 2026-05-05 00:08 | 37.42299 | -102.71971 | 35719 ft | 385 kts | 320° |
| 2026-05-05 00:09 | 37.47129 | -102.74972 | 35719 ft | 388 kts | 320° |
| 2026-05-05 00:09 | 37.51972 | -102.77976 | 35715 ft | 387 kts | 321° |
| 2026-05-05 00:10 | 37.56969 | -102.80632 | 35711 ft | 391 kts | 324° |
| 2026-05-05 00:10 | 37.62035 | -102.83176 | 35707 ft | 393 kts | 323° |
| 2026-05-05 00:11 | 37.67134 | -102.85770 | 35709 ft | 398 kts | 324° |
| 2026-05-05 00:11 | 37.72239 | -102.88385 | 35702 ft | 398 kts | 324° |
| 2026-05-05 00:12 | 37.77340 | -102.91006 | 35697 ft | 395 kts | 324° |
| 2026-05-05 00:12 | 37.82446 | -102.93640 | 35690 ft | 394 kts | 323° |
| 2026-05-05 00:13 | 37.87516 | -102.96238 | 35692 ft | 392 kts | 324° |
| 2026-05-05 00:13 | 37.92599 | -102.98845 | 35691 ft | 396 kts | 324° |
| 2026-05-05 00:14 | 37.97703 | -103.01487 | 35693 ft | 395 kts | 323° |
| 2026-05-05 00:14 | 38.02745 | -103.04085 | 35692 ft | 393 kts | 323° |
| 2026-05-05 00:15 | 38.07850 | -103.06726 | 35696 ft | 394 kts | 323° |
| 2026-05-05 00:15 | 38.12907 | -103.09350 | 35697 ft | 392 kts | 323° |
| 2026-05-05 00:16 | 38.17943 | -103.11970 | 35703 ft | 396 kts | 323° |
| 2026-05-05 00:16 | 38.23067 | -103.14636 | 35707 ft | 397 kts | 323° |
| 2026-05-05 00:17 | 38.28146 | -103.17283 | 35709 ft | 391 kts | 323° |
| 2026-05-05 00:17 | 38.33173 | -103.19908 | 35714 ft | 391 kts | 323° |
| 2026-05-05 00:18 | 38.38207 | -103.22540 | 35717 ft | 391 kts | 323° |
| 2026-05-05 00:18 | 38.43245 | -103.25179 | 35721 ft | 392 kts | 323° |
| 2026-05-05 00:19 | 38.48280 | -103.27819 | 35725 ft | 392 kts | 323° |
| 2026-05-05 00:19 | 38.53321 | -103.30466 | 35731 ft | 392 kts | 323° |
| 2026-05-05 00:20 | 38.58364 | -103.33120 | 35737 ft | 392 kts | 323° |
| 2026-05-05 00:20 | 38.63395 | -103.35771 | 35744 ft | 391 kts | 323° |
| 2026-05-05 00:21 | 38.68428 | -103.38427 | 35751 ft | 391 kts | 323° |
| 2026-05-05 00:21 | 38.73464 | -103.41089 | 35760 ft | 392 kts | 323° |
| 2026-05-05 00:22 | 38.78504 | -103.43757 | 35769 ft | 390 kts | 323° |
| 2026-05-05 00:22 | 38.83518 | -103.46413 | 35781 ft | 392 kts | 323° |
| 2026-05-05 00:23 | 38.88582 | -103.49106 | 35788 ft | 396 kts | 323° |
| 2026-05-05 00:23 | 38.93687 | -103.51815 | 35798 ft | 397 kts | 323° |
| 2026-05-05 00:24 | 38.98801 | -103.54535 | 35826 ft | 397 kts | 324° |
| 2026-05-05 00:24 | 39.03069 | -103.56810 | 35832 ft | 397 kts | 323° |
| 2026-05-05 00:25 | 39.08196 | -103.59569 | 35836 ft | 400 kts | 323° |
| 2026-05-05 00:25 | 39.13327 | -103.62302 | 35836 ft | 400 kts | 324° |
| 2026-05-05 00:26 | 39.18451 | -103.65054 | 35851 ft | 403 kts | 324° |
| 2026-05-05 00:26 | 39.23632 | -103.67847 | 35841 ft | 401 kts | 325° |
| 2026-05-05 00:27 | 39.28772 | -103.70581 | 35844 ft | 404 kts | 324° |
| 2026-05-05 00:27 | 39.33997 | -103.73396 | 35843 ft | 409 kts | 324° |
| 2026-05-05 00:28 | 39.39259 | -103.76243 | 35836 ft | 400 kts | 323° |
| 2026-05-05 00:28 | 39.44340 | -103.78996 | 35847 ft | 396 kts | 324° |
| 2026-05-05 00:29 | 39.49462 | -103.81755 | 35850 ft | 402 kts | 324° |
| 2026-05-05 00:29 | 39.54643 | -103.84566 | 35851 ft | 406 kts | 324° |
| 2026-05-05 00:30 | 39.59839 | -103.87388 | 35864 ft | 407 kts | 324° |
| 2026-05-05 00:30 | 39.65053 | -103.90228 | 35868 ft | 406 kts | 324° |
| 2026-05-05 00:31 | 39.70246 | -103.93047 | 35866 ft | 402 kts | 324° |
| 2026-05-05 00:31 | 39.75415 | -103.95868 | 35869 ft | 400 kts | 324° |
| 2026-05-05 00:32 | 39.80529 | -103.98677 | 35869 ft | 401 kts | 324° |
| 2026-05-05 00:32 | 39.85691 | -104.01480 | 35873 ft | 406 kts | 325° |
| 2026-05-05 00:33 | 39.90908 | -104.04322 | 35867 ft | 407 kts | 324° |
| 2026-05-05 00:33 | 39.96102 | -104.07200 | 35870 ft | 405 kts | 324° |
| 2026-05-05 00:34 | 40.01286 | -104.10063 | 35862 ft | 404 kts | 324° |
| 2026-05-05 00:34 | 40.06445 | -104.12924 | 35869 ft | 401 kts | 324° |
| 2026-05-05 00:35 | 40.11601 | -104.15739 | 35873 ft | 406 kts | 324° |
| 2026-05-05 00:35 | 40.16787 | -104.18600 | 35874 ft | 406 kts | 324° |
| 2026-05-05 00:36 | 40.21972 | -104.21459 | 35856 ft | 396 kts | 324° |
| 2026-05-05 00:36 | 40.27040 | -104.24241 | 35868 ft | 398 kts | 324° |
| 2026-05-05 00:37 | 40.32176 | -104.27118 | 35873 ft | 402 kts | 324° |
| 2026-05-05 00:37 | 40.37300 | -104.29977 | 35871 ft | 398 kts | 324° |
| 2026-05-05 00:38 | 40.42438 | -104.32854 | 35890 ft | 406 kts | 325° |
| 2026-05-05 00:38 | 40.47587 | -104.35712 | 35888 ft | 408 kts | 324° |
| 2026-05-05 00:39 | 40.52899 | -104.38681 | 35888 ft | 409 kts | 324° |
| 2026-05-05 00:39 | 40.58130 | -104.41617 | 35886 ft | 410 kts | 324° |
| 2026-05-05 00:40 | 40.63428 | -104.44588 | 35896 ft | 416 kts | 325° |
| 2026-05-05 00:40 | 40.68755 | -104.47585 | 35891 ft | 413 kts | 325° |
| 2026-05-05 00:41 | 40.74006 | -104.50554 | 35890 ft | 405 kts | 325° |
| 2026-05-05 00:41 | 40.79198 | -104.53478 | 35900 ft | 408 kts | 325° |
| 2026-05-05 00:42 | 40.84428 | -104.56434 | 35905 ft | 411 kts | 325° |
| 2026-05-05 00:42 | 40.89641 | -104.59381 | 35913 ft | 406 kts | 325° |
| 2026-05-05 00:43 | 40.94884 | -104.62334 | 35923 ft | 411 kts | 326° |
| 2026-05-05 00:43 | 41.00169 | -104.65331 | 35926 ft | 413 kts | 326° |
| 2026-05-05 00:44 | 41.05423 | -104.68333 | 35932 ft | 410 kts | 326° |
| 2026-05-05 00:44 | 41.10676 | -104.71334 | 35933 ft | 413 kts | 326° |
| 2026-05-05 00:45 | 41.15974 | -104.74359 | 35938 ft | 415 kts | 326° |
| 2026-05-05 00:45 | 41.21254 | -104.77445 | 35937 ft | 410 kts | 323° |
| 2026-05-05 00:46 | 41.26211 | -104.81045 | 35939 ft | 404 kts | 319° |
| 2026-05-05 00:46 | 41.31007 | -104.84872 | 35937 ft | 400 kts | 319° |
| 2026-05-05 00:47 | 41.35801 | -104.88662 | 35939 ft | 403 kts | 320° |
| 2026-05-05 00:47 | 41.40607 | -104.92439 | 35939 ft | 404 kts | 320° |
| 2026-05-05 00:48 | 41.45477 | -104.96259 | 35941 ft | 404 kts | 320° |
| 2026-05-05 00:48 | 41.50319 | -105.00057 | 35941 ft | 404 kts | 320° |
| 2026-05-05 00:49 | 41.55188 | -105.03830 | 35940 ft | 405 kts | 320° |
| 2026-05-05 00:49 | 41.60056 | -105.07623 | 35939 ft | 405 kts | 320° |
| 2026-05-05 00:50 | 41.64925 | -105.11435 | 35936 ft | 406 kts | 320° |
| 2026-05-05 00:50 | 41.69768 | -105.15236 | 35934 ft | 406 kts | 320° |
| 2026-05-05 00:51 | 41.74647 | -105.19074 | 35932 ft | 408 kts | 320° |
| 2026-05-05 00:51 | 41.79541 | -105.22933 | 35929 ft | 408 kts | 320° |
| 2026-05-05 00:52 | 41.84430 | -105.26795 | 35927 ft | 407 kts | 320° |
| 2026-05-05 00:52 | 41.89308 | -105.30655 | 35926 ft | 408 kts | 320° |
| 2026-05-05 00:53 | 41.94208 | -105.34539 | 35925 ft | 409 kts | 320° |
| 2026-05-05 00:53 | 41.99115 | -105.38437 | 35925 ft | 410 kts | 320° |
| 2026-05-05 00:54 | 42.04020 | -105.42342 | 35924 ft | 411 kts | 321° |
| 2026-05-05 00:54 | 42.08955 | -105.46274 | 35925 ft | 412 kts | 321° |
| 2026-05-05 00:55 | 42.13910 | -105.50231 | 35927 ft | 412 kts | 321° |
| 2026-05-05 00:55 | 42.18832 | -105.54168 | 35928 ft | 412 kts | 321° |
| 2026-05-05 00:56 | 42.23756 | -105.58115 | 35930 ft | 411 kts | 321° |
| 2026-05-05 00:56 | 42.28680 | -105.62069 | 35931 ft | 411 kts | 321° |
| 2026-05-05 00:57 | 42.33584 | -105.66014 | 35932 ft | 411 kts | 321° |
| 2026-05-05 00:57 | 42.38500 | -105.69976 | 35930 ft | 412 kts | 321° |
| 2026-05-05 00:58 | 42.43425 | -105.73952 | 35930 ft | 412 kts | 321° |
| 2026-05-05 00:58 | 42.48345 | -105.77932 | 35932 ft | 412 kts | 321° |
| 2026-05-05 00:59 | 42.53233 | -105.81894 | 35932 ft | 413 kts | 321° |
| 2026-05-05 00:59 | 42.58158 | -105.85893 | 35933 ft | 412 kts | 321° |
| 2026-05-05 01:00 | 42.63065 | -105.89885 | 35933 ft | 411 kts | 321° |
| 2026-05-05 01:00 | 42.67967 | -105.93880 | 35933 ft | 411 kts | 321° |
| 2026-05-05 01:01 | 42.72865 | -105.97879 | 35933 ft | 411 kts | 321° |
| 2026-05-05 01:01 | 42.77771 | -106.01893 | 35931 ft | 412 kts | 322° |
| 2026-05-05 01:02 | 42.82720 | -106.05932 | 35933 ft | 412 kts | 322° |
| 2026-05-05 01:02 | 42.87600 | -106.09918 | 35932 ft | 412 kts | 322° |
| 2026-05-05 01:03 | 42.92495 | -106.13951 | 35933 ft | 411 kts | 322° |
| 2026-05-05 01:03 | 42.97379 | -106.17988 | 35933 ft | 411 kts | 322° |
| 2026-05-05 01:04 | 43.02273 | -106.22040 | 35933 ft | 411 kts | 322° |
| 2026-05-05 01:04 | 43.09609 | -106.28122 | 35934 ft | 411 kts | 323° |
| 2026-05-05 01:05 | 43.14492 | -106.32123 | 35934 ft | 411 kts | 323° |
| 2026-05-05 01:05 | 43.19416 | -106.36169 | 35935 ft | 411 kts | 323° |
| 2026-05-05 01:06 | 43.23481 | -106.39520 | 35936 ft | 410 kts | 323° |
| 2026-05-05 01:06 | 43.28362 | -106.43553 | 35938 ft | 410 kts | 323° |
| 2026-05-05 01:07 | 43.33241 | -106.47594 | 35939 ft | 411 kts | 323° |
| 2026-05-05 01:07 | 43.38134 | -106.51653 | 35946 ft | 410 kts | 323° |
| 2026-05-05 01:08 | 43.43035 | -106.55671 | 35949 ft | 410 kts | 323° |
| 2026-05-05 01:08 | 43.47924 | -106.59703 | 35951 ft | 410 kts | 323° |
| 2026-05-05 01:09 | 43.52804 | -106.63747 | 35954 ft | 410 kts | 323° |
| 2026-05-05 01:09 | 43.57681 | -106.67802 | 35955 ft | 409 kts | 323° |
| 2026-05-05 01:10 | 43.62552 | -106.71863 | 35956 ft | 409 kts | 323° |
| 2026-05-05 01:10 | 43.67425 | -106.75934 | 35962 ft | 409 kts | 324° |
| 2026-05-05 01:11 | 43.72295 | -106.80012 | 35965 ft | 409 kts | 324° |
| 2026-05-05 01:11 | 43.77157 | -106.84091 | 35967 ft | 409 kts | 324° |
| 2026-05-05 01:12 | 43.82021 | -106.88179 | 35969 ft | 410 kts | 324° |
| 2026-05-05 01:12 | 43.86886 | -106.92277 | 35971 ft | 409 kts | 324° |
| 2026-05-05 01:13 | 43.89314 | -106.94325 | 35973 ft | 408 kts | 324° |